Time;durP1;ratioP1;P1;durP2;ratioP2;P2;SDS_P1;SDS_P2;PMS_P1;PMS_P2;Temp;Humidity;BMP_temperature;BMP_pressure;BME280_temperature;BME280_humidity;BME280_pressure;Samples;Min_cycle;Max_cycle;Signal;HPM_P1;HPM_P2
2021/09/03 00:00:21;;;;;;;3.22;2.92;;;21.70;99.90;;;;;;4998311;28;20089;-88
2021/09/03 00:02:47;;;;;;;3.58;3.00;;;21.60;99.90;;;;;;4997846;28;20037;-88
2021/09/03 00:05:15;;;;;;;3.40;3.03;;;21.60;99.90;;;;;;4997767;28;20041;-88
2021/09/03 00:07:41;;;;;;;6.03;3.10;;;21.60;99.90;;;;;;4979171;28;20036;-88
2021/09/03 00:10:09;;;;;;;6.00;3.17;;;21.60;99.90;;;;;;4994816;28;20527;-88
2021/09/03 00:12:35;;;;;;;4.53;3.38;;;21.50;99.90;;;;;;4981259;28;20050;-88
2021/09/03 00:15:01;;;;;;;5.60;3.50;;;21.50;99.90;;;;;;4997819;28;20428;-88
2021/09/03 00:17:27;;;;;;;5.22;3.38;;;21.50;99.90;;;;;;4979953;28;20026;-87
2021/09/03 00:19:53;;;;;;;4.05;3.35;;;21.40;99.90;;;;;;4979929;28;20308;-88
2021/09/03 00:22:19;;;;;;;6.60;3.28;;;21.30;99.90;;;;;;4976172;28;20491;-88
2021/09/03 00:24:45;;;;;;;3.35;3.05;;;21.30;99.90;;;;;;5005776;28;20018;-88
2021/09/03 00:27:11;;;;;;;4.38;3.30;;;21.30;99.90;;;;;;4997386;28;20030;-88
2021/09/03 00:29:36;;;;;;;4.00;3.55;;;21.30;99.90;;;;;;4979958;28;20117;-88
2021/09/03 00:32:02;;;;;;;5.10;3.70;;;21.30;99.90;;;;;;4997765;28;20026;-88
2021/09/03 00:34:28;;;;;;;6.38;3.60;;;21.10;99.90;;;;;;4994278;28;20558;-88
2021/09/03 00:36:54;;;;;;;3.78;3.30;;;21.20;99.90;;;;;;4996570;28;20537;-88
2021/09/03 00:39:20;;;;;;;3.40;3.10;;;21.20;99.90;;;;;;4979453;28;20495;-88
2021/09/03 00:41:46;;;;;;;4.30;3.10;;;21.30;99.90;;;;;;4997144;28;20033;-88
2021/09/03 00:44:12;;;;;;;5.40;3.65;;;21.20;99.90;;;;;;4979569;28;20154;-88
2021/09/03 00:46:37;;;;;;;7.60;3.97;;;21.20;99.90;;;;;;4995667;28;20026;-88
2021/09/03 00:49:03;;;;;;;5.22;3.65;;;21.20;99.90;;;;;;4994681;28;20219;-88
2021/09/03 00:51:29;;;;;;;3.88;3.13;;;21.20;99.90;;;;;;4997651;28;20053;-88
2021/09/03 00:53:54;;;;;;;5.28;3.50;;;21.10;99.90;;;;;;4996323;28;20038;-88
2021/09/03 00:56:20;;;;;;;5.03;3.70;;;21.10;99.90;;;;;;4997104;28;20559;-88
2021/09/03 00:58:46;;;;;;;3.72;3.35;;;21.10;99.90;;;;;;4996669;28;20036;-88
2021/09/03 01:01:11;;;;;;;4.95;3.65;;;21.10;99.90;;;;;;4993329;28;20057;-88
2021/09/03 01:03:37;;;;;;;5.45;3.88;;;21.10;99.90;;;;;;4979986;28;20427;-88
2021/09/03 01:06:05;;;;;;;4.38;3.97;;;21.10;99.90;;;;;;4997100;28;20108;-88
2021/09/03 01:08:32;;;;;;;4.35;3.80;;;21.20;99.90;;;;;;4997529;28;20050;-88
2021/09/03 01:10:58;;;;;;;4.18;3.78;;;21.10;99.90;;;;;;4996284;28;20026;-88
2021/09/03 01:13:24;;;;;;;5.63;4.20;;;21.10;99.90;;;;;;4993427;28;20023;-88
2021/09/03 01:15:50;;;;;;;5.60;4.25;;;20.90;99.90;;;;;;4996342;28;20816;-88
2021/09/03 01:18:15;;;;;;;7.85;4.30;;;21.00;99.90;;;;;;4997174;28;20042;-88
2021/09/03 01:20:41;;;;;;;4.10;3.70;;;20.80;99.90;;;;;;4996547;28;20046;-88
2021/09/03 01:23:07;;;;;;;4.75;4.35;;;20.80;99.90;;;;;;4994397;28;20066;-88
2021/09/03 01:25:32;;;;;;;5.38;4.00;;;21.00;99.90;;;;;;5008159;28;20447;-88
2021/09/03 01:27:58;;;;;;;6.88;4.20;;;20.90;99.90;;;;;;4977929;28;20030;-88
2021/09/03 01:30:24;;;;;;;6.53;3.90;;;20.90;99.90;;;;;;4979280;28;20435;-88
2021/09/03 01:32:50;;;;;;;7.95;4.43;;;20.90;99.90;;;;;;4978784;28;20069;-87
2021/09/03 01:35:16;;;;;;;5.05;4.15;;;20.80;99.90;;;;;;4996779;28;20030;-87
2021/09/03 01:37:42;;;;;;;4.38;3.97;;;20.80;99.90;;;;;;4995378;28;20028;-87
2021/09/03 01:40:08;;;;;;;5.80;4.18;;;20.80;99.90;;;;;;4992688;28;20477;-87
2021/09/03 01:42:34;;;;;;;6.25;4.35;;;20.70;99.90;;;;;;4979126;28;20137;-87
2021/09/03 01:45:00;;;;;;;5.03;4.35;;;20.60;99.90;;;;;;4996715;28;20034;-87
2021/09/03 01:47:25;;;;;;;6.38;4.43;;;20.50;99.90;;;;;;4995949;28;20030;-87
2021/09/03 01:49:51;;;;;;;4.88;4.30;;;20.50;99.90;;;;;;4996132;28;20034;-87
2021/09/03 01:52:17;;;;;;;6.82;4.40;;;20.60;99.90;;;;;;5008203;28;20561;-88
2021/09/03 01:54:42;;;;;;;5.15;4.57;;;20.60;99.90;;;;;;4996599;28;20038;-87
2021/09/03 01:57:08;;;;;;;5.90;4.55;;;20.60;99.90;;;;;;4996206;28;20419;-87
2021/09/03 01:59:33;;;;;;;5.13;4.63;;;20.60;99.90;;;;;;4996085;28;20034;-87
2021/09/03 02:01:59;;;;;;;5.18;4.60;;;20.50;99.90;;;;;;4978550;28;20041;-87
2021/09/03 02:04:25;;;;;;;4.72;4.22;;;20.40;99.90;;;;;;4994612;28;20038;-87
2021/09/03 02:06:50;;;;;;;5.22;4.38;;;20.40;99.90;;;;;;4999605;28;20031;-87
2021/09/03 02:09:16;;;;;;;6.25;4.80;;;20.40;99.90;;;;;;4999401;28;20041;-88
2021/09/03 02:11:41;;;;;;;5.65;4.80;;;20.40;99.90;;;;;;5000139;28;20026;-87
2021/09/03 02:14:07;;;;;;;6.15;4.63;;;20.50;99.90;;;;;;4982353;28;20466;-87
2021/09/03 02:16:33;;;;;;;4.88;4.47;;;20.60;99.90;;;;;;4980238;28;20041;-88
2021/09/03 02:18:59;;;;;;;6.30;4.78;;;20.50;99.90;;;;;;4998426;28;20030;-87
2021/09/03 02:21:25;;;;;;;7.28;4.80;;;20.50;99.90;;;;;;5000147;28;20099;-87
2021/09/03 02:23:51;;;;;;;5.10;4.60;;;20.50;99.90;;;;;;4982004;28;20069;-87
2021/09/03 02:26:17;;;;;;;5.50;4.50;;;20.40;99.90;;;;;;4982086;28;20026;-87
2021/09/03 02:28:43;;;;;;;5.28;4.35;;;20.40;99.90;;;;;;4998973;28;20040;-88
2021/09/03 02:31:09;;;;;;;7.20;4.55;;;20.40;99.90;;;;;;4996348;28;20084;-87
2021/09/03 02:33:35;;;;;;;5.90;4.50;;;20.40;99.90;;;;;;4982995;28;20034;-87
2021/09/03 02:36:00;;;;;;;4.97;4.47;;;20.40;99.90;;;;;;4999788;28;20046;-87
2021/09/03 02:38:26;;;;;;;5.93;4.50;;;20.40;99.90;;;;;;4999160;28;20498;-88
2021/09/03 02:40:52;;;;;;;5.03;4.53;;;20.30;99.90;;;;;;4999443;28;20034;-87
2021/09/03 02:43:18;;;;;;;5.03;4.55;;;20.30;99.90;;;;;;4977495;28;20545;-87
2021/09/03 02:45:43;;;;;;;6.85;4.30;;;20.30;99.90;;;;;;5007189;28;20101;-87
2021/09/03 02:48:09;;;;;;;4.68;4.28;;;20.30;99.90;;;;;;4999610;28;20534;-87
2021/09/03 02:50:35;;;;;;;4.82;4.35;;;20.40;99.90;;;;;;4999186;28;20027;-87
2021/09/03 02:53:01;;;;;;;4.65;4.25;;;20.30;99.90;;;;;;4998891;28;20379;-88
2021/09/03 02:55:27;;;;;;;4.80;4.32;;;20.30;99.90;;;;;;4996265;28;20513;-88
2021/09/03 02:57:53;;;;;;;6.93;4.80;;;20.30;99.90;;;;;;4997795;28;20022;-87
2021/09/03 03:00:19;;;;;;;7.70;4.50;;;20.30;99.90;;;;;;4998359;28;20077;-87
2021/09/03 03:02:45;;;;;;;4.55;4.15;;;20.30;99.90;;;;;;4981279;28;20034;-86
2021/09/03 03:05:11;;;;;;;6.22;4.53;;;20.20;99.90;;;;;;4998664;28;20093;-87
2021/09/03 03:07:36;;;;;;;4.90;4.40;;;20.20;99.90;;;;;;4996739;28;20438;-87
2021/09/03 03:10:04;;;;;;;7.97;4.68;;;20.20;99.90;;;;;;4996068;28;20022;-87
2021/09/03 03:12:30;;;;;;;5.28;4.47;;;20.20;99.90;;;;;;4999428;28;20037;-87
2021/09/03 03:14:55;;;;;;;5.35;4.47;;;20.20;99.90;;;;;;4998132;28;20034;-87
2021/09/03 03:17:21;;;;;;;4.95;4.45;;;20.20;99.90;;;;;;4998488;28;20027;-87
2021/09/03 03:19:46;;;;;;;6.43;4.57;;;20.10;99.90;;;;;;4998421;28;20030;-87
2021/09/03 03:22:12;;;;;;;4.70;4.20;;;20.20;99.90;;;;;;4994132;28;20030;-88
2021/09/03 03:24:38;;;;;;;5.43;4.88;;;20.10;99.90;;;;;;4999447;28;20080;-87
2021/09/03 03:27:04;;;;;;;5.65;5.00;;;20.00;99.90;;;;;;4980803;28;20130;-86
2021/09/03 03:29:30;;;;;;;6.25;5.07;;;20.00;99.90;;;;;;4981176;28;20030;-87
2021/09/03 03:31:55;;;;;;;5.78;4.53;;;20.10;99.90;;;;;;4998472;28;20056;-87
2021/09/03 03:34:21;;;;;;;5.22;4.70;;;20.00;99.90;;;;;;4994527;28;20026;-87
2021/09/03 03:36:46;;;;;;;5.80;5.28;;;20.10;99.90;;;;;;4998633;28;20022;-87
2021/09/03 03:39:12;;;;;;;5.95;4.95;;;20.00;99.90;;;;;;4998181;28;20161;-87
2021/09/03 03:41:39;;;;;;;6.72;4.90;;;20.00;99.90;;;;;;4998327;28;20030;-87
2021/09/03 03:44:05;;;;;;;8.13;4.55;;;19.90;99.90;;;;;;4998007;28;20049;-87
2021/09/03 03:46:30;;;;;;;5.38;4.88;;;19.90;99.90;;;;;;4995344;28;20396;-87
2021/09/03 03:48:56;;;;;;;5.38;4.88;;;20.00;99.90;;;;;;4996472;28;20022;-87
2021/09/03 03:51:22;;;;;;;5.57;5.10;;;19.90;99.90;;;;;;4998227;28;20042;-87
2021/09/03 03:53:48;;;;;;;5.72;5.20;;;19.80;99.90;;;;;;4998279;28;20026;-87
2021/09/03 03:56:15;;;;;;;6.05;5.55;;;19.90;99.90;;;;;;4998170;28;20077;-87
2021/09/03 03:58:40;;;;;;;5.65;4.82;;;19.90;99.90;;;;;;4996369;28;20113;-87
2021/09/03 04:01:06;;;;;;;6.88;5.18;;;19.90;99.90;;;;;;4994830;28;20449;-87
2021/09/03 04:03:32;;;;;;;5.78;5.18;;;19.90;99.90;;;;;;4999037;28;20537;-87
2021/09/03 04:05:57;;;;;;;6.25;5.38;;;20.00;99.90;;;;;;4997489;28;20026;-87
2021/09/03 04:08:23;;;;;;;5.88;5.25;;;19.90;99.90;;;;;;4997812;28;20458;-87
2021/09/03 04:10:49;;;;;;;6.53;5.78;;;20.00;99.90;;;;;;4997784;28;20018;-87
2021/09/03 04:13:14;;;;;;;6.07;5.47;;;19.90;99.90;;;;;;4993887;28;20039;-88
2021/09/03 04:15:40;;;;;;;7.13;5.32;;;19.70;99.90;;;;;;4998280;28;20150;-88
2021/09/03 04:18:05;;;;;;;7.32;5.65;;;19.70;99.90;;;;;;4998001;28;20038;-87
2021/09/03 04:20:31;;;;;;;5.80;5.30;;;19.70;99.90;;;;;;4997022;28;20054;-87
2021/09/03 04:22:57;;;;;;;6.72;5.07;;;19.60;99.90;;;;;;4980211;28;20069;-87
2021/09/03 04:25:22;;;;;;;5.60;5.10;;;19.60;99.90;;;;;;4976662;28;20030;-87
2021/09/03 04:27:48;;;;;;;6.05;5.45;;;19.60;99.90;;;;;;4978631;28;20031;-87
2021/09/03 04:30:14;;;;;;;5.35;4.85;;;19.70;99.90;;;;;;4997275;28;20033;-87
2021/09/03 04:32:40;;;;;;;7.13;5.20;;;19.60;99.90;;;;;;4997654;28;20416;-87
2021/09/03 04:35:08;;;;;;;5.53;5.03;;;19.60;99.90;;;;;;4997040;28;20121;-88
2021/09/03 04:38:00;;;;;;;5.78;5.28;;;19.70;99.90;;;;;;4995005;28;20466;-87
2021/09/03 04:40:26;;;;;;;5.75;5.25;;;19.70;99.90;;;;;;4959037;28;20034;-87
2021/09/03 04:42:52;;;;;;;6.88;5.68;;;19.80;99.90;;;;;;4996092;28;20105;-87
2021/09/03 04:45:17;;;;;;;6.55;5.95;;;19.70;99.90;;;;;;5009102;28;20113;-87
2021/09/03 04:47:43;;;;;;;6.18;4.90;;;19.70;99.90;;;;;;5001045;28;20081;-87
2021/09/03 04:50:11;;;;;;;6.20;5.55;;;19.70;99.90;;;;;;4979476;28;20045;-87
2021/09/03 04:52:37;;;;;;;7.50;5.78;;;19.60;99.90;;;;;;4995383;28;20034;-87
2021/09/03 04:55:03;;;;;;;6.38;5.68;;;19.60;99.90;;;;;;4994657;28;20044;-87
2021/09/03 04:57:29;;;;;;;8.52;5.20;;;19.60;99.90;;;;;;4997179;28;20041;-87
2021/09/03 04:59:54;;;;;;;7.68;5.80;;;19.60;99.90;;;;;;4996736;28;20030;-87
2021/09/03 05:02:20;;;;;;;6.20;5.60;;;19.50;99.90;;;;;;4996603;28;20097;-87
2021/09/03 05:04:46;;;;;;;6.80;5.93;;;19.50;99.90;;;;;;4978998;28;20498;-87
2021/09/03 05:07:11;;;;;;;6.30;5.68;;;19.60;99.90;;;;;;4993056;28;20108;-88
2021/09/03 05:09:37;;;;;;;6.18;5.07;;;19.60;99.90;;;;;;4997111;28;20026;-87
2021/09/03 05:12:04;;;;;;;7.72;5.47;;;19.70;99.90;;;;;;4996771;28;20037;-87
2021/09/03 05:14:29;;;;;;;6.05;5.45;;;19.70;99.90;;;;;;4996482;28;20553;-87
2021/09/03 05:16:55;;;;;;;5.88;5.28;;;19.70;99.90;;;;;;4978979;28;20022;-86
2021/09/03 05:19:21;;;;;;;8.05;5.70;;;19.70;99.90;;;;;;4974663;28;20050;-87
2021/09/03 05:21:46;;;;;;;6.82;6.18;;;19.70;99.90;;;;;;4997002;28;20049;-87
2021/09/03 05:24:12;;;;;;;6.50;5.90;;;19.60;99.90;;;;;;4996156;28;20541;-87
2021/09/03 05:26:38;;;;;;;7.30;6.32;;;19.50;99.90;;;;;;4996601;28;20058;-87
2021/09/03 05:29:03;;;;;;;8.23;5.85;;;19.60;99.90;;;;;;4996593;28;20037;-87
2021/09/03 05:31:29;;;;;;;9.25;6.07;;;19.50;99.90;;;;;;4993158;28;20029;-87
2021/09/03 05:33:55;;;;;;;7.88;5.82;;;19.50;99.90;;;;;;4995420;28;20084;-88
2021/09/03 05:36:22;;;;;;;6.50;5.80;;;19.40;99.90;;;;;;4995987;28;20085;-87
2021/09/03 05:38:49;;;;;;;6.55;5.93;;;19.40;99.90;;;;;;4980065;28;20479;-87
2021/09/03 05:41:14;;;;;;;6.18;5.55;;;19.40;99.90;;;;;;4982790;28;20399;-87
2021/09/03 05:43:40;;;;;;;6.40;5.78;;;19.40;99.90;;;;;;4998718;28;20045;-87
2021/09/03 05:46:06;;;;;;;6.18;5.68;;;19.40;99.90;;;;;;4996949;28;20038;-87
2021/09/03 05:48:31;;;;;;;7.38;6.13;;;19.40;99.90;;;;;;4983965;28;20034;-87
2021/09/03 05:50:57;;;;;;;7.13;6.25;;;19.40;99.90;;;;;;4999959;28;20026;-87
2021/09/03 05:53:22;;;;;;;7.43;6.72;;;19.50;99.90;;;;;;4999984;28;20068;-87
2021/09/03 05:55:48;;;;;;;7.03;6.32;;;19.50;99.90;;;;;;5000168;28;20033;-86
2021/09/03 05:58:13;;;;;;;7.10;6.50;;;19.50;99.90;;;;;;4996171;28;20104;-88
2021/09/03 06:00:39;;;;;;;6.95;6.25;;;19.50;99.90;;;;;;5000819;28;20080;-87
2021/09/03 06:03:05;;;;;;;7.63;6.28;;;19.60;99.90;;;;;;4982185;28;20511;-87
2021/09/03 06:05:30;;;;;;;8.43;6.65;;;19.80;99.90;;;;;;4982190;28;20031;-87
2021/09/03 06:07:56;;;;;;;7.00;6.30;;;19.70;99.90;;;;;;4983411;28;20049;-86
2021/09/03 06:10:21;;;;;;;7.97;6.30;;;19.70;99.90;;;;;;5011008;28;20030;-87
2021/09/03 06:12:49;;;;;;;6.88;6.22;;;19.70;99.90;;;;;;4982620;28;20081;-87
2021/09/03 06:15:14;;;;;;;7.85;7.07;;;19.80;99.90;;;;;;4999524;28;20018;-87
2021/09/03 06:17:40;;;;;;;6.85;6.15;;;19.80;99.90;;;;;;4999648;28;20121;-87
2021/09/03 06:20:07;;;;;;;10.75;7.07;;;19.80;99.90;;;;;;4982347;28;20026;-87
2021/09/03 06:22:34;;;;;;;7.93;6.60;;;19.80;99.90;;;;;;4980043;28;20430;-87
2021/09/03 06:24:59;;;;;;;9.75;7.30;;;19.90;99.90;;;;;;4997685;28;20499;-87
2021/09/03 06:27:25;;;;;;;9.30;7.20;;;19.90;99.90;;;;;;4999913;28;20073;-86
2021/09/03 06:29:53;;;;;;;7.93;7.22;;;20.00;99.90;;;;;;4981918;28;20031;-87
2021/09/03 06:32:18;;;;;;;7.95;7.25;;;20.00;99.90;;;;;;4998950;28;20029;-87
2021/09/03 06:34:50;;;;;;;8.13;7.40;;;20.10;99.90;;;;;;5010744;28;20026;-86
2021/09/03 06:37:16;;;;;;;8.25;7.45;;;20.10;99.90;;;;;;4995087;28;20124;-87
2021/09/03 06:39:42;;;;;;;8.95;8.07;;;20.10;99.90;;;;;;4999874;28;20515;-87
2021/09/03 06:42:09;;;;;;;11.25;7.63;;;20.10;99.90;;;;;;4999004;28;20026;-87
2021/09/03 06:44:36;;;;;;;9.65;8.18;;;20.10;99.90;;;;;;4998842;28;20054;-87
2021/09/03 06:47:03;;;;;;;9.80;8.10;;;20.30;99.90;;;;;;4982313;28;20108;-87
2021/09/03 06:49:29;;;;;;;11.00;7.78;;;20.40;99.90;;;;;;4996077;28;20030;-87
2021/09/03 06:51:55;;;;;;;7.97;7.22;;;20.50;99.90;;;;;;4996757;28;20022;-87
2021/09/03 06:54:21;;;;;;;8.02;7.30;;;20.50;99.90;;;;;;4998592;28;20109;-87
2021/09/03 06:56:47;;;;;;;8.50;7.70;;;20.60;99.90;;;;;;5000048;28;20113;-87
2021/09/03 06:59:13;;;;;;;8.35;6.30;;;20.80;99.90;;;;;;4981094;28;20407;-87
2021/09/03 07:01:39;;;;;;;9.13;6.60;;;20.90;99.90;;;;;;4997291;28;20499;-87
2021/09/03 07:04:05;;;;;;;7.03;6.32;;;21.00;99.90;;;;;;4996274;28;20562;-87
2021/09/03 07:06:31;;;;;;;6.90;6.22;;;21.10;99.90;;;;;;4999319;28;20054;-87
2021/09/03 07:08:57;;;;;;;7.43;6.72;;;21.20;99.90;;;;;;4999028;28;20120;-87
2021/09/03 07:11:23;;;;;;;9.55;6.68;;;21.20;99.90;;;;;;4981009;28;20030;-87
2021/09/03 07:13:49;;;;;;;8.40;6.65;;;21.30;99.90;;;;;;4998133;28;20026;-87
2021/09/03 07:16:15;;;;;;;6.90;6.20;;;21.30;99.90;;;;;;4995158;28;20031;-88
2021/09/03 07:18:40;;;;;;;6.30;5.70;;;21.40;99.90;;;;;;4999068;28;20035;-87
2021/09/03 07:21:06;;;;;;;7.68;6.93;;;21.40;99.90;;;;;;4991045;28;20080;-87
2021/09/03 07:23:32;;;;;;;6.50;5.90;;;21.50;99.90;;;;;;5003941;28;20054;-87
2021/09/03 07:26:00;;;;;;;8.45;6.47;;;21.60;99.90;;;;;;4998808;28;20022;-87
2021/09/03 07:28:26;;;;;;;6.93;6.13;;;21.60;99.90;;;;;;4994805;28;20109;-87
2021/09/03 07:30:51;;;;;;;7.82;6.20;;;21.60;99.90;;;;;;4997942;28;20110;-87
2021/09/03 07:33:17;;;;;;;8.45;7.07;;;21.60;99.90;;;;;;4998181;28;20038;-87
2021/09/03 07:35:45;;;;;;;8.38;6.80;;;21.50;99.90;;;;;;4998527;28;20076;-87
2021/09/03 07:38:10;;;;;;;8.77;6.88;;;21.60;99.90;;;;;;4998353;28;20410;-87
2021/09/03 07:40:36;;;;;;;6.85;5.97;;;21.60;99.90;;;;;;4996331;28;20037;-87
2021/09/03 07:43:07;;;;;;;12.75;7.18;;;21.70;99.90;;;;;;4996084;28;20043;-88
2021/09/03 07:45:34;;;;;;;8.52;6.40;;;21.80;99.90;;;;;;4997598;28;20088;-87
2021/09/03 07:48:00;;;;;;;7.95;7.00;;;22.10;99.90;;;;;;4980499;28;20052;-87
2021/09/03 07:50:26;;;;;;;8.75;7.63;;;22.20;99.90;;;;;;4997991;28;20022;-87
2021/09/03 07:52:52;;;;;;;9.70;7.07;;;22.40;99.90;;;;;;4980429;28;20030;-87
2021/09/03 07:55:18;;;;;;;9.73;8.00;;;22.50;99.90;;;;;;4993957;28;20018;-88
2021/09/03 07:57:43;;;;;;;10.10;7.13;;;22.60;99.90;;;;;;4980984;28;20412;-87
2021/09/03 08:00:09;;;;;;;8.73;7.05;;;22.50;99.90;;;;;;4997922;28;20049;-88
2021/09/03 08:02:35;;;;;;;8.43;7.05;;;22.60;99.90;;;;;;4997403;28;20034;-88
2021/09/03 08:05:01;;;;;;;7.43;6.70;;;22.90;99.90;;;;;;4998173;28;20129;-87
2021/09/03 08:07:28;;;;;;;9.93;6.80;;;23.10;99.90;;;;;;4977235;28;20479;-87
2021/09/03 08:09:55;;;;;;;10.07;6.85;;;23.10;99.90;;;;;;4979485;28;20118;-88
2021/09/03 08:12:21;;;;;;;7.15;6.45;;;23.10;99.90;;;;;;4996887;28;20054;-87
2021/09/03 08:14:47;;;;;;;7.15;6.35;;;23.20;99.90;;;;;;4997648;28;20030;-88
2021/09/03 08:17:12;;;;;;;10.07;5.55;;;23.40;99.90;;;;;;4997791;28;20530;-87
2021/09/03 08:19:38;;;;;;;6.80;6.10;;;23.40;99.90;;;;;;4978243;28;20041;-88
2021/09/03 08:22:04;;;;;;;8.77;5.70;;;23.30;99.90;;;;;;4994831;28;20018;-88
2021/09/03 08:24:30;;;;;;;6.72;5.80;;;23.50;99.90;;;;;;4980772;28;20088;-88
2021/09/03 08:26:56;;;;;;;6.55;5.60;;;23.40;99.90;;;;;;4997671;28;20030;-88
2021/09/03 08:29:21;;;;;;;7.97;5.57;;;23.30;99.90;;;;;;4997176;28;20034;-87
2021/09/03 08:31:47;;;;;;;6.88;6.18;;;23.40;99.90;;;;;;4979435;28;20033;-88
2021/09/03 08:34:13;;;;;;;6.60;5.95;;;23.00;99.90;;;;;;4975866;28;20117;-87
2021/09/03 08:36:38;;;;;;;7.68;6.25;;;23.30;99.90;;;;;;4980616;28;20022;-87
2021/09/03 08:39:04;;;;;;;6.63;5.93;;;23.60;99.90;;;;;;4997118;28;20038;-87
2021/09/03 08:41:30;;;;;;;7.43;5.72;;;23.40;99.90;;;;;;4996888;28;20069;-88
2021/09/03 08:43:59;;;;;;;7.63;5.75;;;23.50;99.90;;;;;;4996870;28;20053;-87
2021/09/03 08:46:25;;;;;;;6.97;5.45;;;23.80;99.90;;;;;;4976353;28;20022;-87
2021/09/03 08:48:51;;;;;;;6.15;5.55;;;24.20;99.90;;;;;;4996439;28;20380;-87
2021/09/03 08:51:16;;;;;;;6.55;5.57;;;24.10;99.90;;;;;;4997727;28;20065;-87
2021/09/03 08:53:42;;;;;;;7.03;5.45;;;24.10;99.90;;;;;;4979576;28;20073;-87
2021/09/03 08:56:08;;;;;;;11.75;5.70;;;24.40;99.90;;;;;;4996711;28;20045;-88
2021/09/03 08:58:34;;;;;;;6.82;5.25;;;24.50;99.90;;;;;;4994910;28;20507;-87
2021/09/03 09:01:11;;;;;;;5.70;5.07;;;24.70;99.90;;;;;;4977899;28;20027;-88
2021/09/03 09:03:39;;;;;;;6.15;5.15;;;24.20;99.90;;;;;;4996440;28;20097;-88
2021/09/03 09:06:06;;;;;;;7.18;5.47;;;24.40;99.90;;;;;;4996951;28;20026;-87
2021/09/03 09:08:34;;;;;;;5.95;5.32;;;24.50;99.90;;;;;;4996542;28;20038;-87
2021/09/03 09:11:00;;;;;;;6.03;5.45;;;24.70;99.90;;;;;;4996721;28;20026;-88
2021/09/03 09:13:30;;;;;;;8.13;5.65;;;24.80;99.90;;;;;;4992813;28;20049;-88
2021/09/03 09:16:07;;;;;;;6.65;5.90;;;25.20;99.90;;;;;;4977511;28;20034;-88
2021/09/03 09:18:54;;;;;;;8.88;6.55;;;25.80;99.90;;;;;;4997620;28;20058;-87
2021/09/03 09:21:26;;;;;;;6.07;5.40;;;26.20;99.90;;;;;;4996960;28;20057;-87
2021/09/03 09:24:13;;;;;;;6.97;6.28;;;26.60;99.90;;;;;;4996603;28;20466;-89
2021/09/03 09:26:47;;;;;;;6.30;5.70;;;26.80;99.90;;;;;;4997108;28;20061;-89
2021/09/03 09:29:23;;;;;;;9.23;8.32;;;27.40;99.90;;;;;;4995107;28;20387;-89
2021/09/03 09:31:53;;;;;;;6.72;6.03;;;28.00;99.90;;;;;;5007978;28;20076;-89
2021/09/03 09:34:20;;;;;;;6.97;5.70;;;27.70;99.90;;;;;;4977645;28;20038;-89
2021/09/03 09:36:47;;;;;;;7.13;5.63;;;27.40;99.90;;;;;;5004330;28;20018;-89
2021/09/03 09:39:13;;;;;;;8.90;5.35;;;27.20;99.90;;;;;;4996851;28;20530;-89
2021/09/03 09:41:41;;;;;;;6.03;5.43;;;27.70;99.90;;;;;;4997079;28;20022;-90
2021/09/03 09:44:07;;;;;;;6.35;5.50;;;28.10;99.90;;;;;;4978926;28;20041;-90
2021/09/03 09:46:32;;;;;;;5.53;5.03;;;27.50;99.90;;;;;;4994071;28;20093;-89
2021/09/03 09:49:03;;;;;;;5.55;5.00;;;27.80;99.90;;;;;;4995717;28;20058;-89
2021/09/03 09:51:33;;;;;;;5.80;4.63;;;28.90;99.90;;;;;;4980370;28;20022;-90
2021/09/03 09:54:11;;;;;;;5.43;4.65;;;29.90;99.90;;;;;;4983780;28;20486;-90
2021/09/03 09:56:42;;;;;;;7.93;4.60;;;31.90;99.90;;;;;;5002202;28;20513;-90
2021/09/03 09:59:09;;;;;;;4.57;4.18;;;34.10;99.90;;;;;;4996152;28;20036;-89
2021/09/03 10:01:36;;;;;;;4.93;4.50;;;32.70;99.90;;;;;;4994644;28;20499;-89
2021/09/03 10:04:29;;;;;;;6.88;4.22;;;35.00;99.80;;;;;;4994383;28;20410;-91
2021/09/03 10:06:59;;;;;;;4.38;3.97;;;37.10;93.30;;;;;;5002529;28;20026;-90
2021/09/03 10:09:27;;;;;;;3.83;3.38;;;39.30;88.40;;;;;;4996460;28;20410;-90
2021/09/03 10:11:55;;;;;;;4.90;4.40;;;38.70;86.80;;;;;;4996417;28;20033;-90
2021/09/03 10:14:27;;;;;;;4.07;3.67;;;38.10;88.90;;;;;;4996759;28;20138;-90
2021/09/03 10:16:54;;;;;;;4.00;3.63;;;40.00;78.70;;;;;;4979032;28;20517;-89
2021/09/03 10:19:32;;;;;;;4.28;3.88;;;42.00;69.80;;;;;;4992198;28;20034;-89
2021/09/03 10:22:05;;;;;;;4.88;3.58;;;42.70;64.80;;;;;;4990167;28;20024;-90
2021/09/03 10:24:31;;;;;;;4.28;3.92;;;40.30;68.70;;;;;;4995781;28;20039;-90
2021/09/03 10:26:58;;;;;;;5.40;3.90;;;38.80;69.80;;;;;;5000439;28;20034;-90
2021/09/03 10:29:43;;;;;;;4.70;4.18;;;38.20;75.20;;;;;;4999690;28;20116;-90
2021/09/03 10:32:18;;;;;;;4.43;3.55;;;37.30;81.20;;;;;;5011176;28;20026;-90
2021/09/03 10:34:54;;;;;;;4.72;3.88;;;37.50;80.50;;;;;;5011786;28;20030;-90
2021/09/03 10:37:23;;;;;;;6.75;3.88;;;38.30;76.00;;;;;;4980639;28;20490;-90
2021/09/03 10:39:59;;;;;;;5.15;3.58;;;37.80;77.00;;;;;;4990758;28;20021;-91
2021/09/03 10:42:45;;;;;;;4.05;3.75;;;37.00;80.20;;;;;;4999339;28;20062;-90
2021/09/03 10:45:35;;;;;;;4.20;3.72;;;38.10;75.00;;;;;;4999688;28;20423;-90
2021/09/03 10:48:16;;;;;;;5.20;4.03;;;38.00;75.80;;;;;;4981929;28;20488;-90
2021/09/03 10:50:46;;;;;;;3.97;3.53;;;40.40;68.10;;;;;;4999125;28;20038;-90
2021/09/03 10:53:16;;;;;;;4.03;3.55;;;38.90;65.10;;;;;;4999985;28;20030;-90
2021/09/03 10:56:09;;;;;;;4.93;3.50;;;39.10;71.90;;;;;;4980674;28;20056;-90
2021/09/03 10:58:39;;;;;;;4.05;3.63;;;39.70;66.00;;;;;;4983629;28;20037;-90
2021/09/03 11:01:10;;;;;;;4.28;3.30;;;39.80;63.50;;;;;;4979527;28;20037;-91
2021/09/03 11:03:45;;;;;;;3.80;3.50;;;42.10;55.40;;;;;;5000232;28;20046;-91
2021/09/03 11:06:15;;;;;;;3.85;3.45;;;42.90;54.80;;;;;;5009898;28;20034;-90
2021/09/03 11:08:43;;;;;;;4.28;3.83;;;40.00;58.10;;;;;;4986491;28;20085;-90
2021/09/03 11:11:21;;;;;;;3.63;3.33;;;39.50;60.80;;;;;;4999263;28;20471;-91
2021/09/03 11:13:58;;;;;;;3.97;3.67;;;38.00;65.90;;;;;;4998424;28;20037;-90
2021/09/03 11:16:37;;;;;;;3.80;3.50;;;37.20;72.50;;;;;;4981109;28;20019;-90
2021/09/03 11:19:24;;;;;;;4.10;3.70;;;35.60;77.80;;;;;;4996734;28;20034;-90
2021/09/03 11:21:52;;;;;;;4.18;3.75;;;36.60;77.40;;;;;;5007546;28;20501;-90
2021/09/03 11:24:21;;;;;;;4.35;3.95;;;37.30;68.30;;;;;;4998807;28;20037;-91
2021/09/03 11:26:48;;;;;;;4.03;3.72;;;36.50;73.10;;;;;;4999140;28;20026;-90
2021/09/03 11:29:17;;;;;;;5.38;3.53;;;37.50;70.90;;;;;;5002027;28;20076;-91
2021/09/03 11:32:13;;;;;;;3.75;3.45;;;38.30;64.00;;;;;;4993038;28;20056;-90
2021/09/03 11:34:40;;;;;;;3.55;3.25;;;40.20;61.90;;;;;;4963545;28;20049;-90
2021/09/03 11:37:05;;;;;;;4.63;3.22;;;41.80;53.50;;;;;;4995742;28;20162;-90
2021/09/03 11:39:33;;;;;;;4.75;3.00;;;42.30;49.60;;;;;;4999513;28;20110;-90
2021/09/03 11:42:00;;;;;;;5.47;3.35;;;42.70;46.70;;;;;;5007417;28;20099;-91
2021/09/03 11:44:25;;;;;;;3.70;2.85;;;44.20;46.40;;;;;;5005173;28;20580;-91
2021/09/03 11:46:51;;;;;;;3.00;2.80;;;45.20;39.40;;;;;;4998465;28;20120;-91
2021/09/03 11:49:21;;;;;;;4.57;2.78;;;45.90;35.50;;;;;;4994196;28;20026;-91
2021/09/03 11:51:47;;;;;;;2.88;2.67;;;46.60;45.80;;;;;;5006762;28;20030;-91
2021/09/03 11:54:15;;;;;;;2.92;2.70;;;47.20;33.50;;;;;;4981378;28;20034;-91
2021/09/03 11:56:41;;;;;;;3.13;2.83;;;48.40;27.70;;;;;;4980908;28;20801;-91
2021/09/03 11:59:07;;;;;;;3.22;2.72;;;48.10;24.80;;;;;;4980974;28;20098;-91
2021/09/03 12:01:34;;;;;;;3.30;3.00;;;47.50;27.50;;;;;;4995687;28;20061;-91
2021/09/03 12:04:07;;;;;;;3.30;3.00;;;45.50;44.00;;;;;;4996102;28;20507;-91
2021/09/03 12:06:33;;;;;;;3.03;2.75;;;46.30;31.70;;;;;;4993622;28;20030;-91
2021/09/03 12:08:59;;;;;;;2.67;2.47;;;46.70;28.40;;;;;;4982591;28;20038;-91
2021/09/03 12:11:34;;;;;;;3.42;2.58;;;47.60;25.50;;;;;;4997887;28;20019;-91
2021/09/03 12:13:59;;;;;;;3.08;2.70;;;47.70;26.60;;;;;;4980925;28;20061;-91
2021/09/03 12:16:28;;;;;;;4.15;3.03;;;46.90;24.80;;;;;;4977126;28;20062;-91
2021/09/03 12:18:56;;;;;;;2.92;2.72;;;48.30;25.30;;;;;;4996948;28;20041;-91
2021/09/03 12:21:30;;;;;;;2.92;2.63;;;48.80;23.10;;;;;;4996296;28;20022;-91
2021/09/03 12:23:59;;;;;;;2.60;2.40;;;48.30;23.90;;;;;;4980375;28;20052;-91
2021/09/03 12:26:47;;;;;;;2.60;2.40;;;47.10;27.00;;;;;;4998157;28;20050;-91
2021/09/03 12:29:14;;;;;;;3.88;2.75;;;47.80;26.00;;;;;;4980460;28;20081;-91
2021/09/03 12:31:52;;;;;;;2.95;2.55;;;47.90;23.80;;;;;;4978529;28;20054;-92
2021/09/03 12:34:18;;;;;;;3.17;2.70;;;48.10;24.00;;;;;;4978334;28;20026;-91
2021/09/03 12:36:44;;;;;;;3.08;2.75;;;48.20;23.00;;;;;;4997956;28;20445;-91
2021/09/03 12:39:12;;;;;;;2.70;2.50;;;47.60;21.70;;;;;;4980721;28;20088;-92
2021/09/03 12:41:40;;;;;;;2.60;2.40;;;47.30;24.80;;;;;;4999580;28;20491;-92
2021/09/03 12:44:18;;;;;;;3.35;2.47;;;46.60;27.70;;;;;;5006741;28;20046;-92
2021/09/03 12:46:44;;;;;;;2.70;2.47;;;46.80;27.70;;;;;;4996249;28;20112;-92